createdAt,value
2022-09-12T00:01:21.399Z,0.90
2022-09-12T00:03:49.758Z,1.10
2022-09-12T00:06:23.126Z,0.77
2022-09-12T00:08:51.958Z,0.90
2022-09-12T00:11:21.517Z,0.93
2022-09-12T00:13:50.047Z,1.15
2022-09-12T00:16:20.219Z,1.00
2022-09-12T00:18:48.543Z,0.90
2022-09-12T00:21:17.784Z,1.02
2022-09-12T00:23:46.781Z,1.00
2022-09-12T00:26:17.232Z,0.90
2022-09-12T00:28:47.503Z,0.80
2022-09-12T00:31:18.029Z,0.82
2022-09-12T00:33:46.389Z,0.90
2022-09-12T00:36:16.585Z,0.90
2022-09-12T00:38:46.001Z,0.80
2022-09-12T00:41:18.336Z,0.88
2022-09-12T00:43:50.404Z,0.80
2022-09-12T00:46:29.036Z,1.00
2022-09-12T00:49:02.162Z,0.70
2022-09-12T00:51:32.542Z,0.85
2022-09-12T00:54:04.049Z,1.00
2022-09-12T00:56:33.000Z,0.85
2022-09-12T00:59:06.910Z,0.80
2022-09-12T01:01:35.648Z,0.90
2022-09-12T01:04:04.731Z,0.90
2022-09-12T01:06:38.244Z,0.70
2022-09-12T01:09:06.903Z,0.60
2022-09-12T01:11:40.004Z,0.85
2022-09-12T01:14:10.323Z,0.70
2022-09-12T01:16:39.377Z,0.80
2022-09-12T01:19:21.676Z,0.60
2022-09-12T01:22:02.263Z,0.80
2022-09-12T01:24:52.368Z,0.70
2022-09-12T01:27:45.417Z,0.75
2022-09-12T01:30:39.841Z,0.80
2022-09-12T01:33:30.963Z,0.90
2022-09-12T01:36:17.556Z,0.90
2022-09-12T01:38:50.380Z,0.50
2022-09-12T01:41:27.495Z,0.80
2022-09-12T01:44:06.508Z,0.70
2022-09-12T01:46:44.086Z,0.70
2022-09-12T01:49:19.214Z,0.70
2022-09-12T01:51:58.388Z,0.70
2022-09-12T01:54:32.843Z,0.70
2022-09-12T01:57:08.621Z,0.73
2022-09-12T01:59:42.200Z,0.80
2022-09-12T02:02:16.315Z,0.75
2022-09-12T02:04:51.606Z,0.70
2022-09-12T02:07:22.255Z,0.70
2022-09-12T02:09:55.727Z,0.67
2022-09-12T02:12:28.650Z,0.70
2022-09-12T02:15:02.201Z,0.70
2022-09-12T02:17:36.435Z,0.63
2022-09-12T02:20:08.285Z,0.70
2022-09-12T02:22:38.404Z,0.70
2022-09-12T02:25:09.259Z,0.68
2022-09-12T02:27:41.296Z,0.80
2022-09-12T02:30:10.868Z,0.60
2022-09-12T02:32:44.937Z,0.73
2022-09-12T02:35:18.418Z,0.80
2022-09-12T02:37:56.560Z,0.55
2022-09-12T02:40:25.776Z,0.70
2022-09-12T02:42:54.377Z,0.70
2022-09-12T02:45:23.818Z,0.70
2022-09-12T02:47:59.775Z,0.70
2022-09-12T02:50:28.764Z,0.68
2022-09-12T02:52:59.934Z,0.88
2022-09-12T02:55:30.473Z,0.70
2022-09-12T02:57:58.964Z,0.80
2022-09-12T03:00:28.361Z,0.80
2022-09-12T03:03:15.485Z,0.60
2022-09-12T03:05:52.716Z,0.70
2022-09-12T03:08:57.386Z,0.70
2022-09-12T03:12:02.360Z,0.63
2022-09-12T03:14:53.096Z,0.80
2022-09-12T03:17:31.648Z,0.70
2022-09-12T03:20:06.859Z,0.80
2022-09-12T03:22:42.422Z,0.73
2022-09-12T03:25:18.647Z,0.90
2022-09-12T03:27:52.898Z,0.52
2022-09-12T03:30:21.090Z,0.40
2022-09-12T03:32:51.191Z,0.70
2022-09-12T03:35:25.191Z,0.60
2022-09-12T03:37:54.297Z,0.50
2022-09-12T03:40:22.723Z,0.60
2022-09-12T03:42:50.908Z,0.60
2022-09-12T03:45:19.207Z,0.52
2022-09-12T03:47:47.429Z,0.55
2022-09-12T03:50:15.732Z,0.68
2022-09-12T03:52:45.420Z,0.60
2022-09-12T03:55:13.656Z,0.70
2022-09-12T03:57:41.948Z,0.50
2022-09-12T04:00:10.864Z,0.80
2022-09-12T04:02:39.050Z,0.57
2022-09-12T04:05:07.489Z,0.70
2022-09-12T04:07:35.654Z,0.60
2022-09-12T04:10:05.889Z,0.55
2022-09-12T04:12:35.622Z,0.70
2022-09-12T04:15:03.870Z,0.55
2022-09-12T04:17:32.039Z,0.40
2022-09-12T04:20:00.340Z,0.77
2022-09-12T04:22:29.916Z,0.82
2022-09-12T04:24:58.048Z,0.80
2022-09-12T04:27:27.758Z,0.70
2022-09-12T04:29:57.069Z,0.60
2022-09-12T04:32:25.437Z,0.73
2022-09-12T04:34:53.655Z,0.65
2022-09-12T04:37:22.276Z,0.75
2022-09-12T04:39:50.714Z,0.80
2022-09-12T04:42:19.129Z,0.80
2022-09-12T04:44:49.789Z,0.77
2022-09-12T04:47:18.938Z,0.77
2022-09-12T04:49:47.098Z,0.80
2022-09-12T04:52:15.260Z,0.75
2022-09-12T04:54:43.485Z,0.63
2022-09-12T04:57:11.932Z,0.70
2022-09-12T04:59:40.329Z,0.75
2022-09-12T05:02:09.918Z,0.70
2022-09-12T05:04:38.131Z,0.90
2022-09-12T05:07:06.904Z,0.60
2022-09-12T05:09:35.061Z,0.60
2022-09-12T05:12:05.529Z,0.68
2022-09-12T05:14:34.556Z,0.40
2022-09-12T05:17:02.908Z,0.47
2022-09-12T05:19:32.969Z,0.50
2022-09-12T05:22:01.599Z,0.75
2022-09-12T05:24:30.293Z,0.68
2022-09-12T05:26:58.452Z,0.70
2022-09-12T05:29:26.677Z,0.70
2022-09-12T05:31:54.873Z,0.65
2022-09-12T05:34:23.441Z,0.52
2022-09-12T05:36:53.082Z,0.75
2022-09-12T05:39:21.376Z,0.80
2022-09-12T05:41:49.558Z,0.70
2022-09-12T05:44:17.987Z,0.60
2022-09-12T05:46:50.404Z,0.60
2022-09-12T05:49:18.878Z,0.50
2022-09-12T05:51:47.366Z,0.52
2022-09-12T05:54:19.481Z,0.63
2022-09-12T05:56:48.941Z,0.60
2022-09-12T05:59:19.152Z,0.70
2022-09-12T06:01:47.851Z,1.13
2022-09-12T06:04:16.177Z,0.75
2022-09-12T06:06:46.239Z,0.63
2022-09-12T06:09:17.293Z,0.63
2022-09-12T06:11:46.628Z,0.50
2022-09-12T06:14:16.159Z,0.63
2022-09-12T06:16:44.811Z,0.52
2022-09-12T06:19:16.536Z,0.73
2022-09-12T06:21:45.369Z,0.40
2022-09-12T06:24:13.598Z,0.47
2022-09-12T06:26:43.821Z,0.43
2022-09-12T06:29:13.398Z,0.40
2022-09-12T06:31:42.981Z,0.40
2022-09-12T06:34:13.321Z,0.50
2022-09-12T06:36:43.652Z,0.40
2022-09-12T06:39:13.445Z,0.45
2022-09-12T06:41:44.201Z,0.50
2022-09-12T06:44:14.690Z,0.50
2022-09-12T06:46:43.002Z,0.40
2022-09-12T06:49:11.453Z,0.40
2022-09-12T06:51:41.947Z,0.60
2022-09-12T06:54:12.916Z,0.40
2022-09-12T06:56:42.480Z,0.40
2022-09-12T06:59:10.741Z,0.50
2022-09-12T07:01:40.225Z,0.47
2022-09-12T07:04:08.510Z,0.40
2022-09-12T07:06:38.524Z,0.40
2022-09-12T07:09:08.251Z,0.40
2022-09-12T07:11:38.850Z,0.50
2022-09-12T07:14:11.009Z,0.50
2022-09-12T07:16:39.221Z,0.40
2022-09-12T07:19:10.059Z,0.50
2022-09-12T07:21:40.258Z,0.43
2022-09-12T07:24:10.029Z,0.40
2022-09-12T07:26:38.722Z,0.40
2022-09-12T07:29:32.766Z,0.50
2022-09-12T07:31:57.462Z,0.25
2022-09-12T07:34:25.948Z,0.40
2022-09-12T07:36:54.139Z,0.50
2022-09-12T07:39:22.341Z,0.50
2022-09-12T07:41:50.516Z,0.40
2022-09-12T07:44:21.595Z,0.50
2022-09-12T07:46:50.508Z,0.60
2022-09-12T07:49:18.652Z,0.45
2022-09-12T07:51:46.857Z,0.50
2022-09-12T07:54:15.485Z,0.40
2022-09-12T07:56:43.705Z,0.40
2022-09-12T07:59:11.865Z,0.30
2022-09-12T08:01:41.686Z,0.30
2022-09-12T08:04:09.913Z,0.50
2022-09-12T08:06:38.072Z,0.30
2022-09-12T08:09:07.919Z,0.40
2022-09-12T08:11:36.571Z,0.50
2022-09-12T08:14:05.843Z,0.30
2022-09-12T08:16:34.903Z,0.60
2022-09-12T08:19:05.457Z,0.40
2022-09-12T08:21:34.362Z,0.32
2022-09-12T08:24:04.765Z,0.38
2022-09-12T08:26:34.074Z,0.53
2022-09-12T08:29:02.601Z,0.30
2022-09-12T08:31:31.956Z,0.25
2022-09-12T08:34:00.947Z,0.43
2022-09-12T08:36:30.528Z,0.50
2022-09-12T08:39:00.696Z,0.77
2022-09-12T08:41:32.211Z,0.50
2022-09-12T08:44:30.286Z,0.20
2022-09-12T08:47:19.064Z,0.52
2022-09-12T08:49:57.170Z,0.40
2022-09-12T08:52:32.332Z,0.50
2022-09-12T08:55:01.909Z,0.50
2022-09-12T08:57:30.186Z,0.60
2022-09-12T08:59:58.628Z,0.50
2022-09-12T09:02:55.503Z,0.52
2022-09-12T09:05:31.001Z,0.47
2022-09-12T09:08:27.438Z,0.60
2022-09-12T09:11:03.781Z,0.60
2022-09-12T09:14:07.835Z,0.50
2022-09-12T09:16:39.465Z,0.68
2022-09-12T09:19:12.427Z,0.60
2022-09-12T09:21:50.694Z,0.50
2022-09-12T09:24:25.053Z,0.55
2022-09-12T09:26:59.098Z,0.45
2022-09-12T09:29:32.528Z,0.60
2022-09-12T09:32:05.506Z,0.60
2022-09-12T09:34:33.788Z,0.60
2022-09-12T09:37:09.848Z,0.60
2022-09-12T09:39:51.583Z,0.60
2022-09-12T09:42:31.933Z,0.43
2022-09-12T09:45:04.133Z,0.60
2022-09-12T09:47:32.573Z,0.50
2022-09-12T09:50:00.765Z,0.57
2022-09-12T09:52:32.769Z,0.50
2022-09-12T09:55:03.001Z,0.57
2022-09-12T09:57:46.697Z,0.50
2022-09-12T10:00:33.629Z,0.50
2022-09-12T10:03:29.245Z,0.40
2022-09-12T10:06:01.618Z,0.40
2022-09-12T10:08:32.109Z,0.50
2022-09-12T10:11:04.939Z,0.40
2022-09-12T10:13:40.985Z,1.10
2022-09-12T10:16:20.003Z,1.17
2022-09-12T10:18:48.712Z,1.13
2022-09-12T10:41:42.915Z,1.33
2022-09-12T10:44:17.197Z,1.45
2022-09-12T10:46:45.538Z,1.40
2022-09-12T10:49:24.307Z,1.30
2022-09-12T10:51:54.090Z,1.40
2022-09-12T10:54:24.974Z,1.20
2022-09-12T10:57:12.997Z,1.25
2022-09-12T10:59:59.921Z,1.10
2022-09-12T11:02:31.103Z,1.25
2022-09-12T11:05:08.025Z,1.10
2022-09-12T11:07:46.904Z,1.40
2022-09-12T11:10:36.447Z,1.20
2022-09-12T11:13:20.668Z,1.23
2022-09-12T11:16:02.604Z,1.10
2022-09-12T11:19:06.261Z,1.30
2022-09-12T11:21:48.760Z,1.20
2022-09-12T11:24:33.408Z,0.95
2022-09-12T11:27:26.777Z,1.20
2022-09-12T11:30:00.723Z,1.23
2022-09-12T11:33:00.193Z,1.10
2022-09-12T11:35:30.751Z,1.05
2022-09-12T11:38:28.575Z,1.10
2022-09-12T11:41:01.735Z,1.15
2022-09-12T11:43:37.141Z,1.20
2022-09-12T11:46:15.579Z,1.15
2022-09-12T11:48:49.876Z,1.10
2022-09-12T11:51:20.888Z,1.25
2022-09-12T11:54:03.325Z,1.20
2022-09-12T11:56:31.624Z,1.20
2022-09-12T11:59:04.200Z,0.93
2022-09-12T12:01:44.946Z,1.08
2022-09-12T12:04:22.116Z,1.25
2022-09-12T12:06:55.173Z,1.20
2022-09-12T12:09:23.549Z,1.30
2022-09-12T12:11:57.631Z,1.00
2022-09-12T12:14:31.595Z,1.10
2022-09-12T12:17:01.671Z,1.08
2022-09-12T12:19:35.735Z,1.00
2022-09-12T12:22:10.177Z,1.00
2022-09-12T12:24:56.497Z,0.82
2022-09-12T12:27:45.746Z,0.85
2022-09-12T12:31:02.279Z,0.85
2022-09-12T12:34:02.105Z,0.90
2022-09-12T12:36:34.394Z,1.00
2022-09-12T12:39:50.040Z,1.08
2022-09-12T12:43:06.104Z,1.00
2022-09-12T12:46:10.733Z,0.93
2022-09-12T12:49:03.494Z,1.30
2022-09-12T12:51:39.516Z,0.85
2022-09-12T12:54:28.718Z,1.10
2022-09-12T12:57:35.418Z,1.00
2022-09-12T13:00:06.981Z,0.90
2022-09-12T13:02:38.302Z,1.00
2022-09-12T13:05:19.102Z,1.00
2022-09-12T13:07:48.772Z,0.98
2022-09-12T13:10:24.380Z,0.90
2022-09-12T13:12:53.227Z,1.00
2022-09-12T13:15:46.037Z,0.90
2022-09-12T13:18:18.240Z,0.90
2022-09-12T13:20:53.206Z,0.95
2022-09-12T13:23:27.730Z,0.90
2022-09-12T13:25:57.881Z,0.85
2022-09-12T13:28:27.482Z,0.90
2022-09-12T13:31:03.914Z,0.70
2022-09-12T13:33:38.013Z,0.80
2022-09-12T13:36:33.021Z,0.90
2022-09-12T13:39:22.340Z,0.80
2022-09-12T13:42:26.915Z,0.80
2022-09-12T13:44:59.741Z,0.63
2022-09-12T13:47:32.043Z,0.80
2022-09-12T13:50:01.076Z,0.80
2022-09-12T13:52:33.586Z,0.73
2022-09-12T13:55:06.342Z,0.80
2022-09-12T13:57:37.614Z,0.70
2022-09-12T14:00:10.624Z,0.70
2022-09-12T14:02:41.875Z,0.70
2022-09-12T14:05:14.632Z,0.63
2022-09-12T14:07:55.131Z,0.70
2022-09-12T14:10:30.268Z,0.70
2022-09-12T14:13:01.543Z,0.77
2022-09-12T14:15:32.688Z,0.63
2022-09-12T14:18:03.295Z,0.70
2022-09-12T14:20:33.544Z,0.63
2022-09-12T14:25:41.438Z,0.70
2022-09-12T14:28:23.179Z,0.70
2022-09-12T14:31:03.394Z,0.60
2022-09-12T14:33:35.529Z,0.60
2022-09-12T14:36:13.393Z,0.70
2022-09-12T14:38:46.394Z,0.60
2022-09-12T14:41:22.548Z,0.60
2022-09-12T14:43:54.272Z,0.65
2022-09-12T14:46:27.193Z,0.63
2022-09-12T14:48:58.845Z,0.70
2022-09-12T14:51:29.579Z,0.60
2022-09-12T14:53:59.599Z,0.70
2022-09-12T14:56:41.299Z,0.45
2022-09-12T14:59:28.763Z,0.40
2022-09-12T15:02:22.377Z,0.70
2022-09-12T15:04:52.313Z,0.40
2022-09-12T15:07:29.484Z,0.50
2022-09-12T15:09:59.970Z,0.40
2022-09-12T15:15:01.187Z,0.45
2022-09-12T15:17:29.366Z,0.40
2022-09-12T15:19:57.514Z,0.35
2022-09-12T15:22:27.161Z,0.50
2022-09-12T15:24:57.512Z,0.35
2022-09-12T15:27:27.502Z,0.50
2022-09-12T15:29:56.391Z,0.50
2022-09-12T15:32:26.444Z,0.68
2022-09-12T15:34:54.796Z,0.47
2022-09-12T15:37:25.492Z,0.30
2022-09-12T15:39:53.746Z,0.50
2022-09-12T15:42:29.764Z,0.40
2022-09-12T15:45:02.367Z,0.50
2022-09-12T15:47:31.014Z,0.50
2022-09-12T15:49:59.188Z,0.50
2022-09-12T15:52:27.363Z,0.55
2022-09-12T15:54:55.564Z,0.98
2022-09-12T15:57:23.730Z,0.80
2022-09-12T15:59:53.644Z,0.82
2022-09-12T16:02:21.939Z,0.70
2022-09-12T16:04:51.832Z,0.60
2022-09-12T16:07:20.077Z,0.52
2022-09-12T16:09:48.501Z,0.90
2022-09-12T16:12:16.652Z,1.45
2022-09-12T16:14:44.823Z,1.77
2022-09-12T16:17:14.372Z,1.10
2022-09-12T16:19:42.549Z,1.40
2022-09-12T16:22:10.780Z,1.20
2022-09-12T16:24:39.412Z,1.10
2022-09-12T16:27:07.972Z,0.93
2022-09-12T16:29:36.196Z,1.10
2022-09-12T16:32:04.769Z,1.00
2022-09-12T16:34:34.381Z,1.10
2022-09-12T16:37:03.029Z,1.00
2022-09-12T16:39:31.173Z,0.50
2022-09-12T16:41:59.412Z,0.52
2022-09-12T16:44:27.684Z,0.50
2022-09-12T16:46:55.910Z,0.50
2022-09-12T16:49:24.089Z,0.43
2022-09-12T16:51:53.794Z,0.60
2022-09-12T16:54:22.085Z,0.50
2022-09-12T16:56:50.327Z,0.60
2022-09-12T16:59:18.528Z,0.50
2022-09-12T17:01:46.980Z,0.63
2022-09-12T17:04:15.184Z,0.50
2022-09-12T17:06:44.124Z,0.50
2022-09-12T17:09:18.454Z,0.60
2022-09-12T17:11:49.650Z,0.95
2022-09-12T17:14:18.009Z,1.00
2022-09-12T17:16:51.672Z,1.20
2022-09-12T17:19:22.402Z,1.50
2022-09-12T17:21:50.585Z,1.00
2022-09-12T17:24:21.068Z,0.52
2022-09-12T17:26:49.285Z,0.70
2022-09-12T17:29:17.827Z,0.60
2022-09-12T17:31:46.658Z,0.70
2022-09-12T17:34:16.354Z,0.80
2022-09-12T17:36:45.313Z,0.88
2022-09-12T17:39:14.363Z,0.98
2022-09-12T17:41:46.057Z,1.60
2022-09-12T17:44:16.237Z,2.25
2022-09-12T17:46:44.662Z,2.10
2022-09-12T17:49:15.540Z,2.13
2022-09-12T17:51:44.668Z,1.92
2022-09-12T17:54:15.767Z,1.80
2022-09-12T17:56:46.655Z,1.90
2022-09-12T17:59:17.360Z,1.50
2022-09-12T18:02:04.095Z,1.50
2022-09-12T18:04:32.654Z,1.42
2022-09-12T18:07:01.406Z,1.85
2022-09-12T18:09:30.742Z,2.10
2022-09-12T18:12:00.499Z,2.03
2022-09-12T18:14:29.508Z,1.42
2022-09-12T18:16:58.158Z,1.60
2022-09-12T18:19:27.149Z,1.80
2022-09-12T18:21:56.042Z,2.08
2022-09-12T18:24:24.666Z,1.98
2022-09-12T18:26:52.910Z,1.95
2022-09-12T18:29:23.180Z,1.80
2022-09-12T18:31:51.569Z,1.50
2022-09-12T18:34:19.758Z,1.38
2022-09-12T18:36:51.555Z,1.38
2022-09-12T18:39:24.091Z,1.30
2022-09-12T18:41:55.561Z,1.20
2022-09-12T18:44:25.223Z,1.30
2022-09-12T18:46:53.562Z,1.40
2022-09-12T18:49:22.016Z,1.50
2022-09-12T18:51:50.521Z,1.50
2022-09-12T18:54:19.144Z,1.33
2022-09-12T18:56:47.739Z,1.60
2022-09-12T18:59:16.646Z,1.25
2022-09-12T19:01:46.324Z,1.25
2022-09-12T19:04:16.360Z,1.42
2022-09-12T19:06:46.119Z,1.20
2022-09-12T19:09:16.351Z,1.20
2022-09-12T19:11:49.562Z,1.45
2022-09-12T19:14:18.585Z,1.25
2022-09-12T19:16:48.196Z,1.30
2022-09-12T19:19:16.664Z,1.30
2022-09-12T19:21:45.093Z,1.10
2022-09-12T19:24:14.403Z,1.65
2022-09-12T19:26:42.936Z,1.27
2022-09-12T19:29:14.362Z,1.20
2022-09-12T19:31:42.843Z,1.30
2022-09-12T19:34:13.945Z,1.40
2022-09-12T19:36:46.962Z,1.20
2022-09-12T19:39:16.404Z,1.30
2022-09-12T19:41:44.956Z,1.20
2022-09-12T19:44:13.384Z,1.20
2022-09-12T19:46:42.000Z,1.33
2022-09-12T19:49:13.809Z,1.30
2022-09-12T19:51:42.155Z,1.10
2022-09-12T19:54:11.246Z,1.30
2022-09-12T19:56:39.506Z,1.08
2022-09-12T19:59:08.725Z,1.10
2022-09-12T20:01:37.757Z,1.10
2022-09-12T20:04:06.894Z,1.08
2022-09-12T20:06:36.923Z,1.17
2022-09-12T20:09:05.403Z,1.20
2022-09-12T20:11:33.848Z,0.90
2022-09-12T20:14:02.203Z,1.13
2022-09-12T20:16:31.038Z,0.90
2022-09-12T20:19:01.144Z,0.88
2022-09-12T20:21:32.995Z,1.00
2022-09-12T20:24:04.477Z,1.20
2022-09-12T20:26:33.069Z,1.00
2022-09-12T20:29:01.429Z,1.00
2022-09-12T20:31:30.324Z,1.17
2022-09-12T20:33:58.799Z,1.05
2022-09-12T20:36:27.594Z,0.88
2022-09-12T20:38:58.005Z,1.27
2022-09-12T20:41:29.932Z,1.10
2022-09-12T20:43:58.822Z,1.00
2022-09-12T20:46:27.996Z,1.00
2022-09-12T20:48:56.516Z,0.90
2022-09-12T20:51:26.751Z,0.98
2022-09-12T20:53:55.758Z,0.88
2022-09-12T20:56:24.690Z,1.00
2022-09-12T20:58:54.659Z,0.95
2022-09-12T21:01:23.409Z,1.00
2022-09-12T21:03:51.850Z,1.10
2022-09-12T21:06:20.929Z,1.00
2022-09-12T21:08:50.454Z,0.80
2022-09-12T21:11:19.748Z,1.10
2022-09-12T21:13:48.509Z,0.90
2022-09-12T21:16:20.407Z,0.95
2022-09-12T21:18:53.898Z,0.70
2022-09-12T21:21:23.904Z,0.80
2022-09-12T21:23:54.226Z,1.20
2022-09-12T21:26:22.676Z,1.20
2022-09-12T21:28:50.912Z,1.05
2022-09-12T21:31:20.661Z,0.80
2022-09-12T21:33:49.125Z,0.90
2022-09-12T21:36:17.351Z,1.00
2022-09-12T21:38:45.618Z,0.90
2022-09-12T21:41:15.407Z,1.10
2022-09-12T21:43:44.350Z,0.80
2022-09-12T21:46:13.074Z,0.90
2022-09-12T21:48:44.396Z,0.90
2022-09-12T21:51:12.591Z,0.82
2022-09-12T21:53:40.889Z,1.02
2022-09-12T21:56:10.156Z,0.70
2022-09-12T21:58:39.337Z,0.90
2022-09-12T22:01:09.746Z,1.05
2022-09-12T22:03:37.943Z,1.00
2022-09-12T22:06:07.955Z,0.93
2022-09-12T22:08:37.320Z,1.00
2022-09-12T22:11:09.420Z,0.75
2022-09-12T22:13:39.254Z,0.80
2022-09-12T22:16:08.088Z,0.90
2022-09-12T22:18:36.961Z,0.77
2022-09-12T22:21:09.121Z,0.80
2022-09-12T22:23:54.658Z,0.90
2022-09-12T22:26:23.164Z,0.85
2022-09-12T22:28:51.871Z,0.82
2022-09-12T22:31:20.322Z,0.95
2022-09-12T22:33:48.754Z,0.80
2022-09-12T22:36:18.321Z,1.00
2022-09-12T22:38:46.607Z,0.98
2022-09-12T22:41:14.856Z,0.80
2022-09-12T22:43:43.192Z,0.80
2022-09-12T22:46:13.350Z,0.70
2022-09-12T22:48:41.902Z,0.80
2022-09-12T22:51:10.168Z,0.80
2022-09-12T22:53:40.095Z,0.90
2022-09-12T22:56:09.149Z,0.82
2022-09-12T22:58:38.284Z,0.80
2022-09-12T23:01:07.244Z,0.90
2022-09-12T23:03:36.398Z,0.80
2022-09-12T23:06:05.639Z,0.90
2022-09-12T23:08:36.248Z,0.73
2022-09-12T23:11:09.337Z,0.87
2022-09-12T23:13:37.799Z,0.90
2022-09-12T23:16:07.965Z,0.90
2022-09-12T23:18:36.927Z,0.88
2022-09-12T23:21:07.020Z,0.82
2022-09-12T23:23:35.806Z,0.90
2022-09-12T23:26:07.490Z,0.80
2022-09-12T23:28:36.085Z,0.82
2022-09-12T23:31:04.747Z,0.70
2022-09-12T23:33:33.834Z,0.68
2022-09-12T23:36:02.909Z,0.70
2022-09-12T23:38:31.938Z,0.77
2022-09-12T23:41:00.674Z,0.80
2022-09-12T23:43:30.660Z,0.90
2022-09-12T23:45:58.961Z,0.82
2022-09-12T23:48:27.498Z,0.65
2022-09-12T23:50:55.928Z,0.82
2022-09-12T23:53:24.691Z,0.93
2022-09-12T23:55:53.028Z,1.00
2022-09-12T23:58:22.613Z,1.02
